ADDS METAR Data INFO
IDs: Format: Raw Decoded Include TAF

Data at: 1013 UTC 12 Dec 2017

KTYS 120953Z 25008KT 10SM OVC250 07/02 A2983 RMK AO2 SLP102 T00670017
KTYS 120853Z 25007KT 10SM SCT130 OVC250 08/02 A2984 RMK AO2 SPL103 T00780022 53002
KTYS 120753Z 24009KT 10SM SCT130 OVC250 08/02 A2984 RMK AO2 SLP102 T00780022
KTYS 120653Z 24011KT 10SM SCT130 OVC250 08/02 A2983 RMK AO2 SLP099 T00780017
KTYS 120553Z 23015KT 10SM SCT130 BKN250 09/02 A2983 RMK AO2 SLP101 T00890017 10100 20083 58013
KTYS 120453Z 23014KT 10SM SCT120 BKN250 09/01 A2985 RMK AO2 SLP107 T00890011 401331017
KTYS 120353Z 23015G23KT 10SM BKN120 OVC250 09/01 A2987 RMK AO2 SLP114 T00940011
KTYS 120253Z 24014KT 10SM SCT120 BKN250 09/01 A2987 RMK AO2 SLP116 T00940006 55009
KTYS 120153Z 22014G22KT 10SM SCT120 BKN250 10/01 A2987 RMK AO2 SLP116 T01000006
KTYS 120053Z 24012KT 10SM SCT120 BKN250 09/01 A2989 RMK AO2 SLP124 T00890011
KTYS 112353Z 23009KT 10SM CLR 08/01 A2990 RMK AO2 SLP128 T00780011 10133 20078 56015
KTYS 112253Z 24013KT 10SM CLR 10/01 A2991 RMK AO2 SLP132 T01000006
KTYS 112153Z 23011KT 10SM CLR 11/02 A2992 RMK AO2 SLP133 T01110017
KTYS 112053Z 23014KT 10SM CLR 13/01 A2995 RMK AO2 SLP142 T01280006 58031
KTYS 111953Z 23013KT 10SM FEW200 13/00 A2997 RMK AO2 SLP151 T01280000
KTYS 111853Z 23011KT 10SM CLR 13/01 A3002 RMK AO2 SLP165 T01280011
KTYS 111753Z 25007KT 10SM FEW200 11/01 A3004 RMK AO2 SLP174 T01060006 10106 21017 58031
KTYS 111653Z 22009KT 10SM CLR 09/00 A3009 RMK AO2 SLP191 T00890000
KTYS 111553Z 24010KT 10SM CLR 08/M01 A3013 RMK AO2 SLP205 T00781006
KTYS 111453Z 23006KT 10SM CLR 04/M01 A3014 RMK AO2 SLP209 T00391006 58002
KTYS 111353Z 27004KT 10SM CLR 02/M01 A3015 RMK AO2 SLP214 T00171011
KTYS 111253Z 00000KT 10SM CLR M01/M03 A3015 RMK AO2 SLP215 T10111028
KTYS 111153Z 00000KT 10SM CLR M01/M03 A3014 RMK AO2 SLP213 T10061028 10022 21017 56007
KTYS 111053Z 00000KT 10SM CLR M01/M03 A3015 RMK AO2 SLP215 T10061033
KTYS 110953Z 31003KT 10SM CLR 01/M03 A3016 RMK AO2 SLP217 T00061033
KTYS 110853Z 30005KT 10SM CLR 01/M03 A3017 RMK AO2 SLP219 T00111033 56006
KTYS 110753Z 00000KT 10SM CLR 01/M03 A3017 RMK AO2 SLP220 T00111033
KTYS 110653Z 19004KT 10SM SCT200 01/M04 A3017 RMK AO2 SLP221 T00111039
KTYS 110553Z 22010KT 10SM SCT200 02/M03 A3019 RMK AO2 SLP226 T00221033 10033 20017 58000
KTYS 110453Z 23010KT 10SM FEW200 02/M04 A3019 RMK AO2 SLP230 T00171039 400501044
KTYS 110353Z 23012KT 10SM FEW200 02/M04 A3019 RMK AO2 SLP229 T00171039
KTYS 110253Z 25012KT 10SM FEW200 02/M04 A3014 RMK AO2 SPL228 T00221039 53017
KTYS 110153Z 24012KT 10SM SCT200 03/M04 A3016 RMK AO2 SLP220 T00281039
KTYS 110053Z 22013KT 10SM SCT200 03/M04 A3013 RMK AO2 SLP212 T00281044
KTYS 102353Z 23009KT 10SM BKN200 03/M04 A3013 RMK AO2 SLP210 T00331039 10050 20022 55007
KTYS 102253Z 21010KT 10SM FEW200 03/M04 A3013 RMK AO2 SLP210 T00281044